Terminal Aerodrome Forecast
Issued by NWS Charleston, WV

Home | Current Version | Previous Version | Text Only | Print | Product List | Glossary On
Versions: 1 2 3 4 5 6 7 8 9 10 11 12 13 14 15 16 17 18 19 20 21 22 23 24 25 26 27 28 29 30 31 32
000
FTUS41 KRLX 290659 AAA
TAFEKN
TAF AMD
KEKN 290659Z 2907/3006 00000KT 4SM BR SCT200
     FM290800 00000KT 1SM BR SCT001
     FM290900 00000KT 1/4SM FG VV001
     FM291300 00000KT P6SM SCT250
     FM291600 02004KT P6SM SCT040
     FM292300 VRB03KT P6SM SCT250=

USA.gov is the U.S. government's official web portal to all federal, state and local government web resources and services.